sensor_id;sensor_type;location;lat;lon;timestamp;P1;durP1;ratioP1;P2;durP2;ratioP2
47713;SDS011;33475;46.614;13.888;2023-06-19T00:00:36;4.28;;;3.97;;
47713;SDS011;33475;46.614;13.888;2023-06-19T00:03:04;5.90;;;4.43;;
47713;SDS011;33475;46.614;13.888;2023-06-19T00:05:30;4.70;;;4.30;;
47713;SDS011;33475;46.614;13.888;2023-06-19T00:07:56;4.88;;;4.40;;
47713;SDS011;33475;46.614;13.888;2023-06-19T00:10:22;4.93;;;4.38;;
47713;SDS011;33475;46.614;13.888;2023-06-19T00:12:48;10.20;;;4.00;;
47713;SDS011;33475;46.614;13.888;2023-06-19T00:15:14;4.80;;;4.40;;
47713;SDS011;33475;46.614;13.888;2023-06-19T00:17:40;8.52;;;4.50;;
47713;SDS011;33475;46.614;13.888;2023-06-19T00:20:07;5.35;;;4.47;;
47713;SDS011;33475;46.614;13.888;2023-06-19T00:22:34;4.65;;;4.25;;
47713;SDS011;33475;46.614;13.888;2023-06-19T00:25:00;4.85;;;4.45;;
47713;SDS011;33475;46.614;13.888;2023-06-19T00:27:27;5.70;;;5.20;;
47713;SDS011;33475;46.614;13.888;2023-06-19T00:29:53;4.63;;;4.22;;
47713;SDS011;33475;46.614;13.888;2023-06-19T00:32:19;4.75;;;4.35;;
47713;SDS011;33475;46.614;13.888;2023-06-19T00:34:45;5.20;;;4.70;;
47713;SDS011;33475;46.614;13.888;2023-06-19T00:37:11;6.15;;;5.07;;
47713;SDS011;33475;46.614;13.888;2023-06-19T00:39:40;5.70;;;4.68;;
47713;SDS011;33475;46.614;13.888;2023-06-19T00:42:06;5.18;;;4.70;;
47713;SDS011;33475;46.614;13.888;2023-06-19T00:44:33;4.88;;;4.38;;
47713;SDS011;33475;46.614;13.888;2023-06-19T00:47:00;5.28;;;4.78;;
47713;SDS011;33475;46.614;13.888;2023-06-19T00:49:27;5.78;;;5.28;;
47713;SDS011;33475;46.614;13.888;2023-06-19T00:51:54;5.60;;;5.10;;
47713;SDS011;33475;46.614;13.888;2023-06-19T00:54:21;8.45;;;5.10;;
47713;SDS011;33475;46.614;13.888;2023-06-19T00:56:47;5.75;;;5.18;;
47713;SDS011;33475;46.614;13.888;2023-06-19T00:59:17;5.32;;;4.93;;
47713;SDS011;33475;46.614;13.888;2023-06-19T01:01:44;5.43;;;4.93;;
47713;SDS011;33475;46.614;13.888;2023-06-19T01:04:11;6.75;;;4.88;;
47713;SDS011;33475;46.614;13.888;2023-06-19T01:06:57;5.50;;;5.00;;
47713;SDS011;33475;46.614;13.888;2023-06-19T01:09:28;5.45;;;4.95;;
47713;SDS011;33475;46.614;13.888;2023-06-19T01:11:57;5.25;;;4.75;;
47713;SDS011;33475;46.614;13.888;2023-06-19T01:14:29;5.45;;;4.95;;
47713;SDS011;33475;46.614;13.888;2023-06-19T01:16:56;5.13;;;4.50;;
47713;SDS011;33475;46.614;13.888;2023-06-19T01:19:22;5.38;;;4.88;;
47713;SDS011;33475;46.614;13.888;2023-06-19T01:21:51;5.07;;;4.57;;
47713;SDS011;33475;46.614;13.888;2023-06-19T01:24:17;5.32;;;4.82;;
47713;SDS011;33475;46.614;13.888;2023-06-19T01:26:43;5.68;;;5.07;;
47713;SDS011;33475;46.614;13.888;2023-06-19T01:29:12;7.25;;;4.80;;
47713;SDS011;33475;46.614;13.888;2023-06-19T01:31:50;4.60;;;4.20;;
47713;SDS011;33475;46.614;13.888;2023-06-19T01:34:18;8.10;;;4.90;;
47713;SDS011;33475;46.614;13.888;2023-06-19T01:36:48;11.98;;;4.70;;
47713;SDS011;33475;46.614;13.888;2023-06-19T01:39:15;5.57;;;4.80;;
47713;SDS011;33475;46.614;13.888;2023-06-19T01:41:42;5.60;;;5.10;;
47713;SDS011;33475;46.614;13.888;2023-06-19T01:44:09;5.38;;;4.93;;
47713;SDS011;33475;46.614;13.888;2023-06-19T01:46:35;7.57;;;4.63;;
47713;SDS011;33475;46.614;13.888;2023-06-19T01:49:01;5.82;;;4.88;;
47713;SDS011;33475;46.614;13.888;2023-06-19T01:51:27;4.43;;;4.07;;
47713;SDS011;33475;46.614;13.888;2023-06-19T01:53:54;5.32;;;4.82;;
47713;SDS011;33475;46.614;13.888;2023-06-19T01:56:20;7.53;;;4.40;;
47713;SDS011;33475;46.614;13.888;2023-06-19T01:58:49;4.72;;;4.30;;
47713;SDS011;33475;46.614;13.888;2023-06-19T02:01:15;5.50;;;4.40;;
47713;SDS011;33475;46.614;13.888;2023-06-19T02:03:42;5.70;;;5.20;;
47713;SDS011;33475;46.614;13.888;2023-06-19T02:06:08;5.63;;;5.13;;
47713;SDS011;33475;46.614;13.888;2023-06-19T02:08:34;5.10;;;4.60;;
47713;SDS011;33475;46.614;13.888;2023-06-19T02:11:00;5.32;;;4.88;;
47713;SDS011;33475;46.614;13.888;2023-06-19T02:13:27;6.57;;;5.38;;
47713;SDS011;33475;46.614;13.888;2023-06-19T02:15:53;6.20;;;5.60;;
47713;SDS011;33475;46.614;13.888;2023-06-19T02:18:20;5.80;;;5.25;;
47713;SDS011;33475;46.614;13.888;2023-06-19T02:20:47;5.43;;;4.95;;
47713;SDS011;33475;46.614;13.888;2023-06-19T02:23:13;5.68;;;5.18;;
47713;SDS011;33475;46.614;13.888;2023-06-19T02:25:39;5.50;;;5.00;;
47713;SDS011;33475;46.614;13.888;2023-06-19T02:28:05;10.35;;;4.80;;
47713;SDS011;33475;46.614;13.888;2023-06-19T02:30:32;5.63;;;5.03;;
47713;SDS011;33475;46.614;13.888;2023-06-19T02:32:58;6.85;;;4.97;;
47713;SDS011;33475;46.614;13.888;2023-06-19T02:35:24;5.78;;;5.20;;
47713;SDS011;33475;46.614;13.888;2023-06-19T02:37:50;6.22;;;5.72;;
47713;SDS011;33475;46.614;13.888;2023-06-19T02:40:16;5.50;;;5.00;;
47713;SDS011;33475;46.614;13.888;2023-06-19T02:42:43;5.80;;;5.30;;
47713;SDS011;33475;46.614;13.888;2023-06-19T02:45:10;5.43;;;4.97;;
47713;SDS011;33475;46.614;13.888;2023-06-19T02:47:37;5.85;;;5.35;;
47713;SDS011;33475;46.614;13.888;2023-06-19T02:50:03;5.03;;;4.63;;
47713;SDS011;33475;46.614;13.888;2023-06-19T02:52:30;5.22;;;4.65;;
47713;SDS011;33475;46.614;13.888;2023-06-19T02:54:57;5.68;;;5.18;;
47713;SDS011;33475;46.614;13.888;2023-06-19T02:57:24;5.07;;;4.60;;
47713;SDS011;33475;46.614;13.888;2023-06-19T02:59:50;5.57;;;5.07;;
47713;SDS011;33475;46.614;13.888;2023-06-19T03:02:16;7.10;;;4.65;;
47713;SDS011;33475;46.614;13.888;2023-06-19T03:04:43;6.15;;;5.10;;
47713;SDS011;33475;46.614;13.888;2023-06-19T03:07:10;9.30;;;5.40;;
47713;SDS011;33475;46.614;13.888;2023-06-19T03:09:38;5.50;;;5.00;;
47713;SDS011;33475;46.614;13.888;2023-06-19T03:12:05;5.53;;;5.03;;
47713;SDS011;33475;46.614;13.888;2023-06-19T03:14:32;6.25;;;5.20;;
47713;SDS011;33475;46.614;13.888;2023-06-19T03:16:58;5.53;;;5.03;;
47713;SDS011;33475;46.614;13.888;2023-06-19T03:19:25;5.25;;;4.85;;
47713;SDS011;33475;46.614;13.888;2023-06-19T03:21:52;6.82;;;5.50;;
47713;SDS011;33475;46.614;13.888;2023-06-19T03:24:18;7.60;;;5.57;;
47713;SDS011;33475;46.614;13.888;2023-06-19T03:26:45;6.32;;;5.72;;
47713;SDS011;33475;46.614;13.888;2023-06-19T03:29:11;7.43;;;5.57;;
47713;SDS011;33475;46.614;13.888;2023-06-19T03:31:38;5.40;;;4.90;;
47713;SDS011;33475;46.614;13.888;2023-06-19T03:34:05;5.07;;;4.57;;
47713;SDS011;33475;46.614;13.888;2023-06-19T03:36:31;7.20;;;5.78;;
47713;SDS011;33475;46.614;13.888;2023-06-19T03:38:57;6.30;;;5.47;;
47713;SDS011;33475;46.614;13.888;2023-06-19T03:41:24;6.15;;;5.47;;
47713;SDS011;33475;46.614;13.888;2023-06-19T03:43:50;6.25;;;5.20;;
47713;SDS011;33475;46.614;13.888;2023-06-19T03:46:16;5.68;;;5.07;;
47713;SDS011;33475;46.614;13.888;2023-06-19T03:48:43;7.53;;;5.50;;
47713;SDS011;33475;46.614;13.888;2023-06-19T03:51:09;5.35;;;4.85;;
47713;SDS011;33475;46.614;13.888;2023-06-19T03:53:36;5.55;;;5.03;;
47713;SDS011;33475;46.614;13.888;2023-06-19T03:56:02;5.13;;;4.63;;
47713;SDS011;33475;46.614;13.888;2023-06-19T03:58:29;4.90;;;4.47;;
47713;SDS011;33475;46.614;13.888;2023-06-19T04:00:55;5.20;;;4.70;;
47713;SDS011;33475;46.614;13.888;2023-06-19T04:03:22;5.95;;;5.45;;
47713;SDS011;33475;46.614;13.888;2023-06-19T04:05:49;4.63;;;4.22;;
47713;SDS011;33475;46.614;13.888;2023-06-19T04:08:15;5.40;;;4.90;;
47713;SDS011;33475;46.614;13.888;2023-06-19T04:10:42;7.05;;;4.85;;
47713;SDS011;33475;46.614;13.888;2023-06-19T04:13:08;5.28;;;4.60;;
47713;SDS011;33475;46.614;13.888;2023-06-19T04:15:35;5.72;;;5.18;;
47713;SDS011;33475;46.614;13.888;2023-06-19T04:18:02;8.02;;;4.95;;
47713;SDS011;33475;46.614;13.888;2023-06-19T04:20:28;5.18;;;4.68;;
47713;SDS011;33475;46.614;13.888;2023-06-19T04:22:54;5.20;;;4.80;;
47713;SDS011;33475;46.614;13.888;2023-06-19T04:25:21;5.28;;;4.78;;
47713;SDS011;33475;46.614;13.888;2023-06-19T04:27:48;6.63;;;4.82;;
47713;SDS011;33475;46.614;13.888;2023-06-19T04:30:15;5.50;;;5.00;;
47713;SDS011;33475;46.614;13.888;2023-06-19T04:32:41;11.40;;;5.53;;
47713;SDS011;33475;46.614;13.888;2023-06-19T04:35:08;7.38;;;5.50;;
47713;SDS011;33475;46.614;13.888;2023-06-19T04:37:35;7.70;;;4.68;;
47713;SDS011;33475;46.614;13.888;2023-06-19T04:40:02;7.90;;;5.05;;
47713;SDS011;33475;46.614;13.888;2023-06-19T04:42:32;5.32;;;4.82;;
47713;SDS011;33475;46.614;13.888;2023-06-19T04:44:59;7.15;;;5.55;;
47713;SDS011;33475;46.614;13.888;2023-06-19T04:47:26;5.22;;;4.40;;
47713;SDS011;33475;46.614;13.888;2023-06-19T04:49:52;7.10;;;6.40;;
47713;SDS011;33475;46.614;13.888;2023-06-19T04:52:19;6.15;;;5.38;;
47713;SDS011;33475;46.614;13.888;2023-06-19T04:54:45;7.53;;;6.22;;
47713;SDS011;33475;46.614;13.888;2023-06-19T04:57:13;8.50;;;5.82;;
47713;SDS011;33475;46.614;13.888;2023-06-19T04:59:41;5.57;;;5.07;;
47713;SDS011;33475;46.614;13.888;2023-06-19T05:02:08;5.80;;;5.20;;
47713;SDS011;33475;46.614;13.888;2023-06-19T05:04:34;5.68;;;5.18;;
47713;SDS011;33475;46.614;13.888;2023-06-19T05:07:01;6.60;;;5.22;;
47713;SDS011;33475;46.614;13.888;2023-06-19T05:09:28;4.93;;;4.43;;
47713;SDS011;33475;46.614;13.888;2023-06-19T05:11:56;5.43;;;4.93;;
47713;SDS011;33475;46.614;13.888;2023-06-19T05:14:23;13.40;;;4.50;;
47713;SDS011;33475;46.614;13.888;2023-06-19T05:16:49;7.43;;;5.00;;
47713;SDS011;33475;46.614;13.888;2023-06-19T05:19:15;5.15;;;4.68;;
47713;SDS011;33475;46.614;13.888;2023-06-19T05:21:42;5.65;;;5.15;;
47713;SDS011;33475;46.614;13.888;2023-06-19T05:24:08;5.60;;;5.10;;
47713;SDS011;33475;46.614;13.888;2023-06-19T05:26:34;6.38;;;5.45;;
47713;SDS011;33475;46.614;13.888;2023-06-19T05:29:01;5.72;;;5.13;;
47713;SDS011;33475;46.614;13.888;2023-06-19T05:31:28;5.13;;;4.50;;
47713;SDS011;33475;46.614;13.888;2023-06-19T05:33:55;4.50;;;4.10;;
47713;SDS011;33475;46.614;13.888;2023-06-19T05:36:21;5.35;;;4.85;;
47713;SDS011;33475;46.614;13.888;2023-06-19T05:38:48;5.40;;;4.68;;
47713;SDS011;33475;46.614;13.888;2023-06-19T05:41:15;5.97;;;4.38;;
47713;SDS011;33475;46.614;13.888;2023-06-19T05:43:42;5.60;;;4.97;;
47713;SDS011;33475;46.614;13.888;2023-06-19T05:46:08;10.27;;;4.30;;
47713;SDS011;33475;46.614;13.888;2023-06-19T05:48:36;6.07;;;5.53;;
47713;SDS011;33475;46.614;13.888;2023-06-19T05:51:02;5.03;;;4.45;;
47713;SDS011;33475;46.614;13.888;2023-06-19T05:53:28;7.43;;;4.68;;
47713;SDS011;33475;46.614;13.888;2023-06-19T05:55:56;4.85;;;4.45;;
47713;SDS011;33475;46.614;13.888;2023-06-19T05:58:23;5.07;;;4.68;;
47713;SDS011;33475;46.614;13.888;2023-06-19T06:00:51;5.53;;;5.03;;
47713;SDS011;33475;46.614;13.888;2023-06-19T06:03:23;6.25;;;5.75;;
47713;SDS011;33475;46.614;13.888;2023-06-19T06:05:50;5.05;;;4.57;;
47713;SDS011;33475;46.614;13.888;2023-06-19T06:08:16;5.07;;;4.68;;
47713;SDS011;33475;46.614;13.888;2023-06-19T06:10:43;10.02;;;4.72;;
47713;SDS011;33475;46.614;13.888;2023-06-19T06:13:10;5.95;;;5.40;;
47713;SDS011;33475;46.614;13.888;2023-06-19T06:15:36;5.25;;;4.70;;
47713;SDS011;33475;46.614;13.888;2023-06-19T06:18:02;5.65;;;4.28;;
47713;SDS011;33475;46.614;13.888;2023-06-19T06:20:28;6.50;;;5.03;;
47713;SDS011;33475;46.614;13.888;2023-06-19T06:22:55;5.88;;;4.15;;
47713;SDS011;33475;46.614;13.888;2023-06-19T06:25:21;7.22;;;4.20;;
47713;SDS011;33475;46.614;13.888;2023-06-19T06:27:47;5.18;;;4.50;;
47713;SDS011;33475;46.614;13.888;2023-06-19T06:30:13;11.90;;;4.65;;
47713;SDS011;33475;46.614;13.888;2023-06-19T06:32:40;5.35;;;4.85;;
47713;SDS011;33475;46.614;13.888;2023-06-19T06:35:06;6.30;;;4.32;;
47713;SDS011;33475;46.614;13.888;2023-06-19T06:37:33;8.32;;;4.07;;
47713;SDS011;33475;46.614;13.888;2023-06-19T06:40:00;11.55;;;5.10;;
47713;SDS011;33475;46.614;13.888;2023-06-19T06:42:26;6.55;;;5.43;;
47713;SDS011;33475;46.614;13.888;2023-06-19T06:44:53;6.95;;;4.47;;
47713;SDS011;33475;46.614;13.888;2023-06-19T06:47:19;6.18;;;4.15;;
47713;SDS011;33475;46.614;13.888;2023-06-19T06:49:46;5.25;;;4.75;;
47713;SDS011;33475;46.614;13.888;2023-06-19T06:52:12;9.40;;;5.15;;
47713;SDS011;33475;46.614;13.888;2023-06-19T06:54:39;13.32;;;5.60;;
47713;SDS011;33475;46.614;13.888;2023-06-19T06:57:05;5.15;;;4.45;;
47713;SDS011;33475;46.614;13.888;2023-06-19T06:59:32;6.80;;;5.03;;
47713;SDS011;33475;46.614;13.888;2023-06-19T07:01:58;6.88;;;4.75;;
47713;SDS011;33475;46.614;13.888;2023-06-19T07:04:24;6.75;;;4.70;;
47713;SDS011;33475;46.614;13.888;2023-06-19T07:06:50;9.60;;;4.53;;
47713;SDS011;33475;46.614;13.888;2023-06-19T07:09:17;8.10;;;5.03;;
47713;SDS011;33475;46.614;13.888;2023-06-19T07:11:46;5.00;;;4.50;;
47713;SDS011;33475;46.614;13.888;2023-06-19T07:14:12;7.65;;;4.68;;
47713;SDS011;33475;46.614;13.888;2023-06-19T07:16:39;5.35;;;4.95;;
47713;SDS011;33475;46.614;13.888;2023-06-19T07:19:06;5.05;;;4.60;;
47713;SDS011;33475;46.614;13.888;2023-06-19T07:21:32;7.00;;;4.75;;
47713;SDS011;33475;46.614;13.888;2023-06-19T07:23:58;8.98;;;4.20;;
47713;SDS011;33475;46.614;13.888;2023-06-19T07:26:25;4.75;;;4.35;;
47713;SDS011;33475;46.614;13.888;2023-06-19T07:28:51;5.25;;;4.75;;
47713;SDS011;33475;46.614;13.888;2023-06-19T07:31:18;4.80;;;4.50;;
47713;SDS011;33475;46.614;13.888;2023-06-19T07:33:44;4.82;;;3.85;;
47713;SDS011;33475;46.614;13.888;2023-06-19T07:36:10;4.60;;;4.20;;
47713;SDS011;33475;46.614;13.888;2023-06-19T07:38:44;8.98;;;4.32;;
47713;SDS011;33475;46.614;13.888;2023-06-19T07:41:11;4.88;;;3.58;;
47713;SDS011;33475;46.614;13.888;2023-06-19T07:43:37;5.15;;;4.00;;
47713;SDS011;33475;46.614;13.888;2023-06-19T07:46:04;6.93;;;4.63;;
47713;SDS011;33475;46.614;13.888;2023-06-19T07:48:31;4.82;;;4.40;;
47713;SDS011;33475;46.614;13.888;2023-06-19T07:50:57;4.38;;;3.95;;
47713;SDS011;33475;46.614;13.888;2023-06-19T07:53:23;4.60;;;4.03;;
47713;SDS011;33475;46.614;13.888;2023-06-19T07:55:50;4.40;;;4.00;;
47713;SDS011;33475;46.614;13.888;2023-06-19T07:58:16;4.47;;;4.07;;
47713;SDS011;33475;46.614;13.888;2023-06-19T08:00:43;7.25;;;4.68;;
47713;SDS011;33475;46.614;13.888;2023-06-19T08:03:10;4.82;;;4.30;;
47713;SDS011;33475;46.614;13.888;2023-06-19T08:05:37;5.00;;;4.60;;
47713;SDS011;33475;46.614;13.888;2023-06-19T08:08:04;5.18;;;4.43;;
47713;SDS011;33475;46.614;13.888;2023-06-19T08:10:30;5.53;;;4.40;;
47713;SDS011;33475;46.614;13.888;2023-06-19T08:12:57;8.02;;;4.93;;
47713;SDS011;33475;46.614;13.888;2023-06-19T08:15:23;5.75;;;4.10;;
47713;SDS011;33475;46.614;13.888;2023-06-19T08:17:49;4.78;;;4.20;;
47713;SDS011;33475;46.614;13.888;2023-06-19T08:20:16;5.43;;;4.15;;
47713;SDS011;33475;46.614;13.888;2023-06-19T08:22:42;5.57;;;3.80;;
47713;SDS011;33475;46.614;13.888;2023-06-19T08:25:08;11.60;;;4.15;;
47713;SDS011;33475;46.614;13.888;2023-06-19T08:27:35;6.95;;;3.85;;
47713;SDS011;33475;46.614;13.888;2023-06-19T08:30:01;4.57;;;4.10;;
47713;SDS011;33475;46.614;13.888;2023-06-19T08:32:28;4.30;;;3.88;;
47713;SDS011;33475;46.614;13.888;2023-06-19T08:34:55;4.65;;;4.22;;
47713;SDS011;33475;46.614;13.888;2023-06-19T08:37:22;4.55;;;4.15;;
47713;SDS011;33475;46.614;13.888;2023-06-19T08:39:48;7.32;;;4.63;;
47713;SDS011;33475;46.614;13.888;2023-06-19T08:42:14;4.18;;;3.67;;
47713;SDS011;33475;46.614;13.888;2023-06-19T08:44:40;5.57;;;4.40;;
47713;SDS011;33475;46.614;13.888;2023-06-19T08:47:07;6.80;;;4.82;;
47713;SDS011;33475;46.614;13.888;2023-06-19T08:49:35;4.47;;;4.07;;
47713;SDS011;33475;46.614;13.888;2023-06-19T08:52:02;6.25;;;4.35;;
47713;SDS011;33475;46.614;13.888;2023-06-19T08:54:29;8.10;;;3.90;;
47713;SDS011;33475;46.614;13.888;2023-06-19T08:56:55;4.30;;;3.90;;
47713;SDS011;33475;46.614;13.888;2023-06-19T08:59:22;10.10;;;4.10;;
47713;SDS011;33475;46.614;13.888;2023-06-19T09:01:52;5.45;;;4.18;;
47713;SDS011;33475;46.614;13.888;2023-06-19T09:04:23;5.75;;;4.45;;
47713;SDS011;33475;46.614;13.888;2023-06-19T09:06:52;6.88;;;4.07;;
47713;SDS011;33475;46.614;13.888;2023-06-19T09:09:19;5.93;;;4.28;;
47713;SDS011;33475;46.614;13.888;2023-06-19T09:12:03;6.32;;;4.53;;
47713;SDS011;33475;46.614;13.888;2023-06-19T09:14:36;5.40;;;4.60;;
47713;SDS011;33475;46.614;13.888;2023-06-19T09:17:03;11.77;;;4.32;;
47713;SDS011;33475;46.614;13.888;2023-06-19T09:19:29;4.68;;;4.28;;
47713;SDS011;33475;46.614;13.888;2023-06-19T09:22:00;5.60;;;4.22;;
47713;SDS011;33475;46.614;13.888;2023-06-19T09:24:37;4.90;;;4.03;;
47713;SDS011;33475;46.614;13.888;2023-06-19T09:29:37;4.25;;;3.90;;
47713;SDS011;33475;46.614;13.888;2023-06-19T09:32:19;4.40;;;4.00;;
47713;SDS011;33475;46.614;13.888;2023-06-19T09:34:46;4.80;;;4.40;;
47713;SDS011;33475;46.614;13.888;2023-06-19T09:37:13;7.15;;;3.95;;
47713;SDS011;33475;46.614;13.888;2023-06-19T09:39:40;5.72;;;3.55;;
47713;SDS011;33475;46.614;13.888;2023-06-19T09:42:07;4.82;;;4.32;;
47713;SDS011;33475;46.614;13.888;2023-06-19T09:44:39;7.63;;;4.70;;
47713;SDS011;33475;46.614;13.888;2023-06-19T09:47:18;4.57;;;4.15;;
47713;SDS011;33475;46.614;13.888;2023-06-19T09:49:51;5.20;;;4.70;;
47713;SDS011;33475;46.614;13.888;2023-06-19T09:52:20;5.65;;;4.50;;
47713;SDS011;33475;46.614;13.888;2023-06-19T09:54:50;5.50;;;4.38;;
47713;SDS011;33475;46.614;13.888;2023-06-19T09:57:17;4.53;;;4.13;;
47713;SDS011;33475;46.614;13.888;2023-06-19T09:59:47;4.30;;;3.92;;
47713;SDS011;33475;46.614;13.888;2023-06-19T10:02:15;4.78;;;4.38;;
47713;SDS011;33475;46.614;13.888;2023-06-19T10:04:46;5.47;;;4.05;;
47713;SDS011;33475;46.614;13.888;2023-06-19T10:07:15;4.25;;;3.88;;
47713;SDS011;33475;46.614;13.888;2023-06-19T10:09:42;4.88;;;4.07;;
47713;SDS011;33475;46.614;13.888;2023-06-19T10:12:11;4.50;;;4.10;;
47713;SDS011;33475;46.614;13.888;2023-06-19T10:14:44;4.85;;;3.90;;
47713;SDS011;33475;46.614;13.888;2023-06-19T10:17:11;4.38;;;3.97;;
47713;SDS011;33475;46.614;13.888;2023-06-19T10:19:37;4.38;;;4.00;;
47713;SDS011;33475;46.614;13.888;2023-06-19T10:22:03;4.53;;;4.22;;
47713;SDS011;33475;46.614;13.888;2023-06-19T10:24:29;6.13;;;3.70;;
47713;SDS011;33475;46.614;13.888;2023-06-19T10:27:00;7.93;;;4.35;;
47713;SDS011;33475;46.614;13.888;2023-06-19T10:29:51;12.23;;;3.80;;
47713;SDS011;33475;46.614;13.888;2023-06-19T10:32:17;4.35;;;3.95;;
47713;SDS011;33475;46.614;13.888;2023-06-19T10:34:47;4.35;;;3.97;;
47713;SDS011;33475;46.614;13.888;2023-06-19T10:37:16;4.70;;;4.30;;
47713;SDS011;33475;46.614;13.888;2023-06-19T10:39:43;4.55;;;3.80;;
47713;SDS011;33475;46.614;13.888;2023-06-19T10:42:10;4.40;;;3.97;;
47713;SDS011;33475;46.614;13.888;2023-06-19T10:44:36;4.45;;;3.60;;
47713;SDS011;33475;46.614;13.888;2023-06-19T10:47:03;6.60;;;3.75;;
47713;SDS011;33475;46.614;13.888;2023-06-19T10:49:30;4.43;;;3.75;;
47713;SDS011;33475;46.614;13.888;2023-06-19T10:51:59;3.97;;;3.67;;
47713;SDS011;33475;46.614;13.888;2023-06-19T10:54:27;4.20;;;3.90;;
47713;SDS011;33475;46.614;13.888;2023-06-19T10:56:54;5.38;;;3.92;;
47713;SDS011;33475;46.614;13.888;2023-06-19T10:59:22;3.90;;;3.60;;
47713;SDS011;33475;46.614;13.888;2023-06-19T11:01:50;4.25;;;3.90;;
47713;SDS011;33475;46.614;13.888;2023-06-19T11:04:16;3.45;;;3.15;;
47713;SDS011;33475;46.614;13.888;2023-06-19T11:06:43;3.78;;;3.47;;
47713;SDS011;33475;46.614;13.888;2023-06-19T11:09:11;4.43;;;3.65;;
47713;SDS011;33475;46.614;13.888;2023-06-19T11:11:47;5.45;;;3.80;;
47713;SDS011;33475;46.614;13.888;2023-06-19T11:14:14;4.18;;;3.72;;
47713;SDS011;33475;46.614;13.888;2023-06-19T11:16:42;4.35;;;4.05;;
47713;SDS011;33475;46.614;13.888;2023-06-19T11:19:18;4.38;;;3.97;;
47713;SDS011;33475;46.614;13.888;2023-06-19T11:21:49;5.38;;;4.00;;
47713;SDS011;33475;46.614;13.888;2023-06-19T11:24:15;5.85;;;3.95;;
47713;SDS011;33475;46.614;13.888;2023-06-19T11:26:42;4.03;;;3.63;;
47713;SDS011;33475;46.614;13.888;2023-06-19T11:31:41;3.60;;;3.30;;
47713;SDS011;33475;46.614;13.888;2023-06-19T11:34:07;13.40;;;4.65;;
47713;SDS011;33475;46.614;13.888;2023-06-19T11:36:36;7.05;;;3.65;;
47713;SDS011;33475;46.614;13.888;2023-06-19T11:39:02;5.82;;;3.30;;
47713;SDS011;33475;46.614;13.888;2023-06-19T11:41:30;4.05;;;3.65;;
47713;SDS011;33475;46.614;13.888;2023-06-19T11:44:03;4.68;;;3.17;;
47713;SDS011;33475;46.614;13.888;2023-06-19T11:46:30;3.28;;;3.08;;
47713;SDS011;33475;46.614;13.888;2023-06-19T11:49:15;3.28;;;3.00;;
47713;SDS011;33475;46.614;13.888;2023-06-19T11:51:43;3.38;;;3.10;;
47713;SDS011;33475;46.614;13.888;2023-06-19T11:54:09;3.55;;;3.00;;
47713;SDS011;33475;46.614;13.888;2023-06-19T11:56:39;4.05;;;3.17;;
47713;SDS011;33475;46.614;13.888;2023-06-19T11:59:05;3.42;;;3.13;;
47713;SDS011;33475;46.614;13.888;2023-06-19T12:01:32;5.15;;;3.42;;
47713;SDS011;33475;46.614;13.888;2023-06-19T12:03:58;3.35;;;3.15;;
47713;SDS011;33475;46.614;13.888;2023-06-19T12:06:25;3.80;;;3.40;;
47713;SDS011;33475;46.614;13.888;2023-06-19T12:08:51;3.70;;;3.40;;
47713;SDS011;33475;46.614;13.888;2023-06-19T12:11:17;4.50;;;3.45;;
47713;SDS011;33475;46.614;13.888;2023-06-19T12:13:43;5.85;;;3.78;;
47713;SDS011;33475;46.614;13.888;2023-06-19T12:16:09;3.60;;;3.30;;
47713;SDS011;33475;46.614;13.888;2023-06-19T12:18:36;4.40;;;3.83;;
47713;SDS011;33475;46.614;13.888;2023-06-19T12:21:03;4.28;;;3.97;;
47713;SDS011;33475;46.614;13.888;2023-06-19T12:23:29;5.10;;;3.72;;
47713;SDS011;33475;46.614;13.888;2023-06-19T12:25:55;4.18;;;3.47;;
47713;SDS011;33475;46.614;13.888;2023-06-19T12:28:22;3.25;;;3.00;;
47713;SDS011;33475;46.614;13.888;2023-06-19T12:30:48;4.25;;;3.20;;
47713;SDS011;33475;46.614;13.888;2023-06-19T12:33:17;2.80;;;2.50;;
47713;SDS011;33475;46.614;13.888;2023-06-19T12:35:43;6.68;;;3.35;;
47713;SDS011;33475;46.614;13.888;2023-06-19T12:38:10;4.88;;;2.70;;
47713;SDS011;33475;46.614;13.888;2023-06-19T12:40:36;3.40;;;3.10;;
47713;SDS011;33475;46.614;13.888;2023-06-19T12:43:03;3.45;;;3.13;;
47713;SDS011;33475;46.614;13.888;2023-06-19T12:45:29;3.83;;;3.53;;
47713;SDS011;33475;46.614;13.888;2023-06-19T12:47:56;3.47;;;2.90;;
47713;SDS011;33475;46.614;13.888;2023-06-19T12:50:22;4.15;;;2.83;;
47713;SDS011;33475;46.614;13.888;2023-06-19T12:52:48;5.55;;;3.45;;
47713;SDS011;33475;46.614;13.888;2023-06-19T12:55:15;5.53;;;3.67;;
47713;SDS011;33475;46.614;13.888;2023-06-19T12:57:41;4.65;;;3.67;;
47713;SDS011;33475;46.614;13.888;2023-06-19T13:00:11;4.28;;;3.28;;
47713;SDS011;33475;46.614;13.888;2023-06-19T13:02:38;4.93;;;3.83;;
47713;SDS011;33475;46.614;13.888;2023-06-19T13:05:05;4.22;;;3.40;;
47713;SDS011;33475;46.614;13.888;2023-06-19T13:07:31;3.88;;;3.58;;
47713;SDS011;33475;46.614;13.888;2023-06-19T13:09:57;3.78;;;3.45;;
47713;SDS011;33475;46.614;13.888;2023-06-19T13:12:24;3.50;;;3.20;;
47713;SDS011;33475;46.614;13.888;2023-06-19T13:14:50;3.25;;;2.95;;
47713;SDS011;33475;46.614;13.888;2023-06-19T13:17:16;4.53;;;2.75;;
47713;SDS011;33475;46.614;13.888;2023-06-19T13:19:42;3.17;;;2.70;;
47713;SDS011;33475;46.614;13.888;2023-06-19T13:22:08;3.08;;;2.70;;
47713;SDS011;33475;46.614;13.888;2023-06-19T13:24:34;2.90;;;2.70;;
47713;SDS011;33475;46.614;13.888;2023-06-19T13:27:00;3.72;;;2.70;;
47713;SDS011;33475;46.614;13.888;2023-06-19T13:29:27;6.20;;;3.05;;
47713;SDS011;33475;46.614;13.888;2023-06-19T13:31:53;3.90;;;2.83;;
47713;SDS011;33475;46.614;13.888;2023-06-19T13:34:19;6.03;;;2.55;;
47713;SDS011;33475;46.614;13.888;2023-06-19T13:36:47;5.50;;;3.10;;
47713;SDS011;33475;46.614;13.888;2023-06-19T13:39:13;5.70;;;2.60;;
47713;SDS011;33475;46.614;13.888;2023-06-19T13:41:39;2.53;;;2.33;;
47713;SDS011;33475;46.614;13.888;2023-06-19T13:44:05;2.50;;;2.20;;
47713;SDS011;33475;46.614;13.888;2023-06-19T13:46:32;2.60;;;2.40;;
47713;SDS011;33475;46.614;13.888;2023-06-19T13:48:58;2.90;;;2.70;;
47713;SDS011;33475;46.614;13.888;2023-06-19T13:51:26;2.38;;;2.17;;
47713;SDS011;33475;46.614;13.888;2023-06-19T13:53:52;2.40;;;2.20;;
47713;SDS011;33475;46.614;13.888;2023-06-19T13:56:19;4.10;;;2.70;;
47713;SDS011;33475;46.614;13.888;2023-06-19T13:58:48;2.58;;;2.45;;
47713;SDS011;33475;46.614;13.888;2023-06-19T14:01:15;2.47;;;2.28;;
47713;SDS011;33475;46.614;13.888;2023-06-19T14:03:41;5.55;;;2.78;;
47713;SDS011;33475;46.614;13.888;2023-06-19T14:06:08;2.33;;;2.13;;
47713;SDS011;33475;46.614;13.888;2023-06-19T14:08:34;2.22;;;2.03;;
47713;SDS011;33475;46.614;13.888;2023-06-19T14:11:00;2.38;;;2.20;;
47713;SDS011;33475;46.614;13.888;2023-06-19T14:13:26;3.10;;;2.80;;
47713;SDS011;33475;46.614;13.888;2023-06-19T14:15:53;2.75;;;2.55;;
47713;SDS011;33475;46.614;13.888;2023-06-19T14:18:19;4.10;;;2.55;;
47713;SDS011;33475;46.614;13.888;2023-06-19T14:20:45;3.22;;;2.63;;
47713;SDS011;33475;46.614;13.888;2023-06-19T14:23:11;2.47;;;2.28;;
47713;SDS011;33475;46.614;13.888;2023-06-19T14:25:37;2.92;;;2.50;;
47713;SDS011;33475;46.614;13.888;2023-06-19T14:28:03;3.05;;;2.75;;
47713;SDS011;33475;46.614;13.888;2023-06-19T14:30:30;5.22;;;3.10;;
47713;SDS011;33475;46.614;13.888;2023-06-19T14:32:56;3.25;;;3.00;;
47713;SDS011;33475;46.614;13.888;2023-06-19T14:35:22;3.75;;;2.80;;
47713;SDS011;33475;46.614;13.888;2023-06-19T14:37:48;3.58;;;2.70;;